map of YQQ home
YQQ - Airport
Location
City:  Comox, British Columbia, Canada
Name:CFB Comox
Old (Alt.):Comox Airport
ICAO:CYQQ
IATA:YQQ

Details
Type:Airport (Airfield)
Use:Military
Latitude:4942'39"N (49.710833)
Longitude:12453'12"W (-124.886666)
Elevation:84 ft (26 m)
Variation:16.57E (WMM2015v2 magnetic declination)
-0.12 annual change
Runways:2
Longest:10000 ft (3048 m), paved

Time
Time Zone:UTC-8 (DST-7)
Local Time:

Weather
METAR:CYQQ 041400Z 32011G16KT 20SM FEW100 M06/M15 A2971 RMK AC1 SLP061
TAF:CYQQ 041139Z 0412/0512 32012G22KT P6SM FEW020 FEW080
BECMG 0417/0419 32012KT
FM041900 32012KT P6SM FEW020
BECMG 0506/0508 32008KT
RMK NXT FCST BY 041800Z

Related Locations
Nearby:
Farthest:FTU: 10673 mi / 17177 km
Tolagnaro [Maurillac Airport (Fort Dauphin Airport)], MG

Find:

   beyond  
but within

Other Information
Maps:
NOTAMs:
Links:
Sources:

  
  • flag of Canada
  • flag of British Columbia
  

Airport Diagram

Airport diagram for YQQ

Airport diagram PDF

Sectional Chart

Flight Planning
at skyvector.com

Satellite Image

Google Maps Satellite view

 

Copyright © 2004-2019 Karl L. Swartz. All rights reserved.
The Great Circle Mapper name and logo are trademarks of the Great Circle Mapper.
All other trademarks mentioned herein belong to their respective owners.
Please see credits for attibutions and further copyright information.

  Follow gcmap on Facebook Follow gcmap on Twitter GCmap on LinkedIn

hCard Microformat

Geo Microformat